sensor_id;sensor_type;location;lat;lon;timestamp;P1;durP1;ratioP1;P2;durP2;ratioP2
23142;SDS011;11740;51.168;4.112;2023-09-19T00:01:00;8.68;;;2.38;;
23142;SDS011;11740;51.168;4.112;2023-09-19T00:03:27;8.95;;;2.15;;
23142;SDS011;11740;51.168;4.112;2023-09-19T00:05:55;11.50;;;2.28;;
23142;SDS011;11740;51.168;4.112;2023-09-19T00:08:24;10.82;;;2.47;;
23142;SDS011;11740;51.168;4.112;2023-09-19T00:10:51;8.63;;;2.47;;
23142;SDS011;11740;51.168;4.112;2023-09-19T00:13:21;7.78;;;2.40;;
23142;SDS011;11740;51.168;4.112;2023-09-19T00:15:48;11.60;;;2.53;;
23142;SDS011;11740;51.168;4.112;2023-09-19T00:18:17;11.95;;;2.50;;
23142;SDS011;11740;51.168;4.112;2023-09-19T00:20:47;11.05;;;2.40;;
23142;SDS011;11740;51.168;4.112;2023-09-19T00:23:18;8.32;;;2.22;;
23142;SDS011;11740;51.168;4.112;2023-09-19T00:25:46;7.38;;;2.00;;
23142;SDS011;11740;51.168;4.112;2023-09-19T00:28:13;11.00;;;2.63;;
23142;SDS011;11740;51.168;4.112;2023-09-19T00:30:43;12.30;;;2.40;;
23142;SDS011;11740;51.168;4.112;2023-09-19T00:33:11;9.10;;;2.45;;
23142;SDS011;11740;51.168;4.112;2023-09-19T00:35:46;11.82;;;2.25;;
23142;SDS011;11740;51.168;4.112;2023-09-19T00:38:18;9.90;;;2.28;;
23142;SDS011;11740;51.168;4.112;2023-09-19T00:40:49;10.90;;;2.17;;
23142;SDS011;11740;51.168;4.112;2023-09-19T00:43:17;6.50;;;1.83;;
23142;SDS011;11740;51.168;4.112;2023-09-19T00:45:45;10.65;;;2.20;;
23142;SDS011;11740;51.168;4.112;2023-09-19T00:48:17;11.82;;;2.17;;
23142;SDS011;11740;51.168;4.112;2023-09-19T00:50:48;11.07;;;2.30;;
23142;SDS011;11740;51.168;4.112;2023-09-19T00:53:17;7.93;;;2.13;;
23142;SDS011;11740;51.168;4.112;2023-09-19T00:55:47;14.00;;;2.55;;
23142;SDS011;11740;51.168;4.112;2023-09-19T00:58:16;12.68;;;2.22;;
23142;SDS011;11740;51.168;4.112;2023-09-19T01:00:45;9.38;;;2.35;;
23142;SDS011;11740;51.168;4.112;2023-09-19T01:03:14;10.70;;;2.42;;
23142;SDS011;11740;51.168;4.112;2023-09-19T01:05:41;10.90;;;2.83;;
23142;SDS011;11740;51.168;4.112;2023-09-19T01:08:09;8.20;;;2.25;;
23142;SDS011;11740;51.168;4.112;2023-09-19T01:10:39;12.32;;;2.00;;
23142;SDS011;11740;51.168;4.112;2023-09-19T01:13:30;9.70;;;2.33;;
23142;SDS011;11740;51.168;4.112;2023-09-19T01:24:34;7.25;;;2.38;;
23142;SDS011;11740;51.168;4.112;2023-09-19T01:27:36;11.77;;;2.60;;
23142;SDS011;11740;51.168;4.112;2023-09-19T01:30:26;12.82;;;2.88;;
23142;SDS011;11740;51.168;4.112;2023-09-19T01:32:59;9.05;;;2.38;;
23142;SDS011;11740;51.168;4.112;2023-09-19T01:35:26;7.72;;;1.98;;
23142;SDS011;11740;51.168;4.112;2023-09-19T01:37:53;10.10;;;2.35;;
23142;SDS011;11740;51.168;4.112;2023-09-19T01:40:20;9.90;;;2.03;;
23142;SDS011;11740;51.168;4.112;2023-09-19T01:42:53;8.90;;;2.05;;
23142;SDS011;11740;51.168;4.112;2023-09-19T01:45:51;11.80;;;2.40;;
23142;SDS011;11740;51.168;4.112;2023-09-19T01:51:26;9.20;;;2.25;;
23142;SDS011;11740;51.168;4.112;2023-09-19T01:54:10;9.98;;;2.60;;
23142;SDS011;11740;51.168;4.112;2023-09-19T01:56:50;10.45;;;2.70;;
23142;SDS011;11740;51.168;4.112;2023-09-19T01:59:28;12.07;;;2.30;;
23142;SDS011;11740;51.168;4.112;2023-09-19T02:02:03;8.25;;;2.58;;
23142;SDS011;11740;51.168;4.112;2023-09-19T02:04:33;9.45;;;2.58;;
23142;SDS011;11740;51.168;4.112;2023-09-19T02:07:03;13.52;;;3.05;;
23142;SDS011;11740;51.168;4.112;2023-09-19T02:09:32;8.13;;;2.33;;
23142;SDS011;11740;51.168;4.112;2023-09-19T02:12:01;9.40;;;2.65;;
23142;SDS011;11740;51.168;4.112;2023-09-19T02:14:30;11.77;;;2.30;;
23142;SDS011;11740;51.168;4.112;2023-09-19T02:16:58;9.68;;;2.47;;
23142;SDS011;11740;51.168;4.112;2023-09-19T02:19:26;10.20;;;2.80;;
23142;SDS011;11740;51.168;4.112;2023-09-19T02:21:53;10.90;;;2.50;;
23142;SDS011;11740;51.168;4.112;2023-09-19T02:24:20;10.05;;;2.45;;
23142;SDS011;11740;51.168;4.112;2023-09-19T02:26:47;9.98;;;2.50;;
23142;SDS011;11740;51.168;4.112;2023-09-19T02:29:13;12.00;;;2.78;;
23142;SDS011;11740;51.168;4.112;2023-09-19T02:31:40;14.43;;;2.53;;
23142;SDS011;11740;51.168;4.112;2023-09-19T02:34:08;10.93;;;2.60;;
23142;SDS011;11740;51.168;4.112;2023-09-19T02:36:35;12.25;;;2.63;;
23142;SDS011;11740;51.168;4.112;2023-09-19T02:39:03;13.00;;;2.33;;
23142;SDS011;11740;51.168;4.112;2023-09-19T02:41:32;11.10;;;2.42;;
23142;SDS011;11740;51.168;4.112;2023-09-19T02:43:59;12.00;;;2.70;;
23142;SDS011;11740;51.168;4.112;2023-09-19T02:46:27;13.77;;;2.63;;
23142;SDS011;11740;51.168;4.112;2023-09-19T02:48:54;14.68;;;2.80;;
23142;SDS011;11740;51.168;4.112;2023-09-19T02:51:21;10.82;;;2.80;;
23142;SDS011;11740;51.168;4.112;2023-09-19T02:53:49;9.80;;;2.60;;
23142;SDS011;11740;51.168;4.112;2023-09-19T02:56:18;13.98;;;2.85;;
23142;SDS011;11740;51.168;4.112;2023-09-19T02:58:45;17.98;;;3.42;;
23142;SDS011;11740;51.168;4.112;2023-09-19T03:01:14;12.07;;;2.55;;
23142;SDS011;11740;51.168;4.112;2023-09-19T03:03:41;12.05;;;2.70;;
23142;SDS011;11740;51.168;4.112;2023-09-19T03:06:08;14.50;;;3.33;;
23142;SDS011;11740;51.168;4.112;2023-09-19T03:08:36;16.00;;;2.85;;
23142;SDS011;11740;51.168;4.112;2023-09-19T03:11:06;11.60;;;2.90;;
23142;SDS011;11740;51.168;4.112;2023-09-19T03:13:35;13.85;;;2.70;;
23142;SDS011;11740;51.168;4.112;2023-09-19T03:16:04;11.27;;;2.42;;
23142;SDS011;11740;51.168;4.112;2023-09-19T03:18:33;13.25;;;2.63;;
23142;SDS011;11740;51.168;4.112;2023-09-19T03:21:01;17.67;;;2.65;;
23142;SDS011;11740;51.168;4.112;2023-09-19T03:23:28;15.10;;;2.72;;
23142;SDS011;11740;51.168;4.112;2023-09-19T03:25:55;12.43;;;2.35;;
23142;SDS011;11740;51.168;4.112;2023-09-19T03:28:23;10.23;;;2.45;;
23142;SDS011;11740;51.168;4.112;2023-09-19T03:31:00;12.02;;;2.88;;
23142;SDS011;11740;51.168;4.112;2023-09-19T03:33:29;11.95;;;2.58;;
23142;SDS011;11740;51.168;4.112;2023-09-19T03:36:00;10.90;;;2.88;;
23142;SDS011;11740;51.168;4.112;2023-09-19T03:38:32;16.50;;;2.60;;
23142;SDS011;11740;51.168;4.112;2023-09-19T03:41:00;12.05;;;2.85;;
23142;SDS011;11740;51.168;4.112;2023-09-19T03:43:28;10.80;;;2.30;;
23142;SDS011;11740;51.168;4.112;2023-09-19T03:45:55;11.27;;;2.28;;
23142;SDS011;11740;51.168;4.112;2023-09-19T03:48:22;8.73;;;2.55;;
23142;SDS011;11740;51.168;4.112;2023-09-19T03:50:49;11.43;;;2.33;;
23142;SDS011;11740;51.168;4.112;2023-09-19T03:53:17;11.57;;;2.97;;
23142;SDS011;11740;51.168;4.112;2023-09-19T03:55:44;14.35;;;3.38;;
23142;SDS011;11740;51.168;4.112;2023-09-19T03:58:12;8.90;;;2.28;;
23142;SDS011;11740;51.168;4.112;2023-09-19T04:00:39;9.02;;;2.15;;
23142;SDS011;11740;51.168;4.112;2023-09-19T04:03:07;9.80;;;2.53;;
23142;SDS011;11740;51.168;4.112;2023-09-19T04:05:34;13.88;;;2.88;;
23142;SDS011;11740;51.168;4.112;2023-09-19T04:08:01;12.98;;;2.80;;
23142;SDS011;11740;51.168;4.112;2023-09-19T04:10:28;11.43;;;2.72;;
23142;SDS011;11740;51.168;4.112;2023-09-19T04:12:55;9.43;;;2.60;;
23142;SDS011;11740;51.168;4.112;2023-09-19T04:15:23;10.90;;;2.38;;
23142;SDS011;11740;51.168;4.112;2023-09-19T04:17:50;8.02;;;2.50;;
23142;SDS011;11740;51.168;4.112;2023-09-19T04:20:17;14.13;;;2.88;;
23142;SDS011;11740;51.168;4.112;2023-09-19T04:22:51;14.25;;;2.65;;
23142;SDS011;11740;51.168;4.112;2023-09-19T04:25:18;13.02;;;2.60;;
23142;SDS011;11740;51.168;4.112;2023-09-19T04:27:46;9.70;;;2.33;;
23142;SDS011;11740;51.168;4.112;2023-09-19T04:30:14;12.02;;;2.40;;
23142;SDS011;11740;51.168;4.112;2023-09-19T04:32:41;10.63;;;2.65;;
23142;SDS011;11740;51.168;4.112;2023-09-19T04:35:08;16.48;;;2.92;;
23142;SDS011;11740;51.168;4.112;2023-09-19T04:37:37;13.90;;;2.97;;
23142;SDS011;11740;51.168;4.112;2023-09-19T04:40:08;11.35;;;2.60;;
23142;SDS011;11740;51.168;4.112;2023-09-19T04:42:40;12.10;;;2.75;;
23142;SDS011;11740;51.168;4.112;2023-09-19T04:45:08;12.45;;;2.55;;
23142;SDS011;11740;51.168;4.112;2023-09-19T04:47:36;16.45;;;3.15;;
23142;SDS011;11740;51.168;4.112;2023-09-19T04:50:08;15.75;;;2.78;;
23142;SDS011;11740;51.168;4.112;2023-09-19T04:52:39;13.88;;;3.10;;
23142;SDS011;11740;51.168;4.112;2023-09-19T04:55:09;14.15;;;2.92;;
23142;SDS011;11740;51.168;4.112;2023-09-19T04:57:47;12.13;;;2.83;;
23142;SDS011;11740;51.168;4.112;2023-09-19T05:00:16;14.52;;;3.00;;
23142;SDS011;11740;51.168;4.112;2023-09-19T05:02:45;11.32;;;3.00;;
23142;SDS011;11740;51.168;4.112;2023-09-19T05:05:38;17.42;;;2.40;;
23142;SDS011;11740;51.168;4.112;2023-09-19T05:08:07;10.65;;;2.40;;
23142;SDS011;11740;51.168;4.112;2023-09-19T05:10:35;14.35;;;2.92;;
23142;SDS011;11740;51.168;4.112;2023-09-19T05:13:05;9.73;;;2.40;;
23142;SDS011;11740;51.168;4.112;2023-09-19T05:15:36;15.60;;;2.63;;
23142;SDS011;11740;51.168;4.112;2023-09-19T05:18:03;11.15;;;2.30;;
23142;SDS011;11740;51.168;4.112;2023-09-19T05:20:32;14.77;;;2.58;;
23142;SDS011;11740;51.168;4.112;2023-09-19T05:23:01;16.17;;;3.00;;
23142;SDS011;11740;51.168;4.112;2023-09-19T05:25:37;9.20;;;2.35;;
23142;SDS011;11740;51.168;4.112;2023-09-19T05:28:06;16.30;;;3.05;;
23142;SDS011;11740;51.168;4.112;2023-09-19T05:30:34;12.90;;;2.78;;
23142;SDS011;11740;51.168;4.112;2023-09-19T05:33:02;15.63;;;3.72;;
23142;SDS011;11740;51.168;4.112;2023-09-19T05:35:31;22.30;;;6.78;;
23142;SDS011;11740;51.168;4.112;2023-09-19T05:37:58;12.57;;;2.65;;
23142;SDS011;11740;51.168;4.112;2023-09-19T05:40:25;16.27;;;3.03;;
23142;SDS011;11740;51.168;4.112;2023-09-19T05:42:53;16.20;;;3.10;;
23142;SDS011;11740;51.168;4.112;2023-09-19T05:45:20;12.77;;;2.60;;
23142;SDS011;11740;51.168;4.112;2023-09-19T05:47:52;13.38;;;2.75;;
23142;SDS011;11740;51.168;4.112;2023-09-19T05:50:27;15.18;;;3.38;;
23142;SDS011;11740;51.168;4.112;2023-09-19T05:52:54;18.75;;;3.30;;
23142;SDS011;11740;51.168;4.112;2023-09-19T05:55:22;14.27;;;3.30;;
23142;SDS011;11740;51.168;4.112;2023-09-19T05:57:52;15.73;;;2.72;;
23142;SDS011;11740;51.168;4.112;2023-09-19T06:00:20;15.95;;;2.53;;
23142;SDS011;11740;51.168;4.112;2023-09-19T06:02:52;13.05;;;2.58;;
23142;SDS011;11740;51.168;4.112;2023-09-19T06:05:21;21.38;;;3.40;;
23142;SDS011;11740;51.168;4.112;2023-09-19T06:07:48;25.13;;;4.07;;
23142;SDS011;11740;51.168;4.112;2023-09-19T06:10:15;15.45;;;2.65;;
23142;SDS011;11740;51.168;4.112;2023-09-19T06:12:44;13.38;;;2.70;;
23142;SDS011;11740;51.168;4.112;2023-09-19T06:15:14;11.65;;;2.40;;
23142;SDS011;11740;51.168;4.112;2023-09-19T06:17:53;14.57;;;2.75;;
23142;SDS011;11740;51.168;4.112;2023-09-19T06:20:23;12.35;;;3.25;;
23142;SDS011;11740;51.168;4.112;2023-09-19T06:22:52;14.98;;;2.72;;
23142;SDS011;11740;51.168;4.112;2023-09-19T06:25:20;14.25;;;3.17;;
23142;SDS011;11740;51.168;4.112;2023-09-19T06:27:49;15.82;;;2.92;;
23142;SDS011;11740;51.168;4.112;2023-09-19T06:30:22;15.38;;;3.28;;
23142;SDS011;11740;51.168;4.112;2023-09-19T06:32:55;14.13;;;2.60;;
23142;SDS011;11740;51.168;4.112;2023-09-19T06:35:24;13.38;;;2.85;;
23142;SDS011;11740;51.168;4.112;2023-09-19T06:37:56;18.90;;;2.70;;
23142;SDS011;11740;51.168;4.112;2023-09-19T06:40:24;14.90;;;2.60;;
23142;SDS011;11740;51.168;4.112;2023-09-19T06:42:52;15.55;;;3.00;;
23142;SDS011;11740;51.168;4.112;2023-09-19T06:45:20;12.38;;;2.80;;
23142;SDS011;11740;51.168;4.112;2023-09-19T06:47:49;16.38;;;3.05;;
23142;SDS011;11740;51.168;4.112;2023-09-19T06:50:18;14.38;;;2.55;;
23142;SDS011;11740;51.168;4.112;2023-09-19T06:52:52;14.48;;;2.83;;
23142;SDS011;11740;51.168;4.112;2023-09-19T06:55:21;13.82;;;2.42;;
23142;SDS011;11740;51.168;4.112;2023-09-19T06:57:55;10.52;;;2.63;;
23142;SDS011;11740;51.168;4.112;2023-09-19T07:00:22;12.65;;;2.97;;
23142;SDS011;11740;51.168;4.112;2023-09-19T07:02:57;14.05;;;2.25;;
23142;SDS011;11740;51.168;4.112;2023-09-19T07:05:31;13.77;;;2.65;;
23142;SDS011;11740;51.168;4.112;2023-09-19T07:07:58;14.93;;;2.90;;
23142;SDS011;11740;51.168;4.112;2023-09-19T07:10:27;11.63;;;2.58;;
23142;SDS011;11740;51.168;4.112;2023-09-19T07:12:58;10.65;;;2.42;;
23142;SDS011;11740;51.168;4.112;2023-09-19T07:15:32;10.38;;;2.33;;
23142;SDS011;11740;51.168;4.112;2023-09-19T07:18:02;12.05;;;2.28;;
23142;SDS011;11740;51.168;4.112;2023-09-19T07:20:29;12.07;;;2.95;;
23142;SDS011;11740;51.168;4.112;2023-09-19T07:22:58;14.10;;;2.92;;
23142;SDS011;11740;51.168;4.112;2023-09-19T07:25:27;12.25;;;2.80;;
23142;SDS011;11740;51.168;4.112;2023-09-19T07:27:55;11.88;;;3.00;;
23142;SDS011;11740;51.168;4.112;2023-09-19T07:30:27;10.68;;;2.40;;
23142;SDS011;11740;51.168;4.112;2023-09-19T07:32:55;12.65;;;2.28;;
23142;SDS011;11740;51.168;4.112;2023-09-19T07:35:22;12.15;;;2.80;;
23142;SDS011;11740;51.168;4.112;2023-09-19T07:37:50;10.77;;;2.47;;
23142;SDS011;11740;51.168;4.112;2023-09-19T07:40:18;18.33;;;3.05;;
23142;SDS011;11740;51.168;4.112;2023-09-19T07:42:47;13.73;;;3.05;;
23142;SDS011;11740;51.168;4.112;2023-09-19T07:45:14;11.13;;;2.50;;
23142;SDS011;11740;51.168;4.112;2023-09-19T07:47:44;19.13;;;3.15;;
23142;SDS011;11740;51.168;4.112;2023-09-19T07:50:12;12.60;;;2.80;;
23142;SDS011;11740;51.168;4.112;2023-09-19T07:52:42;12.18;;;2.58;;
23142;SDS011;11740;51.168;4.112;2023-09-19T07:55:09;13.90;;;2.75;;
23142;SDS011;11740;51.168;4.112;2023-09-19T07:57:37;13.57;;;3.28;;
23142;SDS011;11740;51.168;4.112;2023-09-19T08:00:04;12.70;;;2.63;;
23142;SDS011;11740;51.168;4.112;2023-09-19T08:02:34;14.10;;;2.75;;
23142;SDS011;11740;51.168;4.112;2023-09-19T08:05:03;12.63;;;2.35;;
23142;SDS011;11740;51.168;4.112;2023-09-19T08:07:32;13.45;;;2.65;;
23142;SDS011;11740;51.168;4.112;2023-09-19T08:09:59;11.82;;;2.55;;
23142;SDS011;11740;51.168;4.112;2023-09-19T08:12:26;17.05;;;3.47;;
23142;SDS011;11740;51.168;4.112;2023-09-19T08:14:53;15.20;;;3.15;;
23142;SDS011;11740;51.168;4.112;2023-09-19T08:17:21;14.40;;;2.83;;
23142;SDS011;11740;51.168;4.112;2023-09-19T08:19:51;11.05;;;2.63;;
23142;SDS011;11740;51.168;4.112;2023-09-19T08:22:19;15.10;;;2.92;;
23142;SDS011;11740;51.168;4.112;2023-09-19T08:24:47;18.17;;;3.85;;
23142;SDS011;11740;51.168;4.112;2023-09-19T08:27:14;10.32;;;2.75;;
23142;SDS011;11740;51.168;4.112;2023-09-19T08:29:44;13.57;;;2.90;;
23142;SDS011;11740;51.168;4.112;2023-09-19T08:32:12;12.43;;;2.78;;
23142;SDS011;11740;51.168;4.112;2023-09-19T08:34:42;14.32;;;2.75;;
23142;SDS011;11740;51.168;4.112;2023-09-19T08:37:08;18.88;;;3.45;;
23142;SDS011;11740;51.168;4.112;2023-09-19T08:39:36;31.20;;;3.58;;
23142;SDS011;11740;51.168;4.112;2023-09-19T08:42:04;13.48;;;2.50;;
23142;SDS011;11740;51.168;4.112;2023-09-19T08:44:31;14.60;;;2.78;;
23142;SDS011;11740;51.168;4.112;2023-09-19T08:47:10;16.67;;;2.95;;
23142;SDS011;11740;51.168;4.112;2023-09-19T08:50:04;10.88;;;2.35;;
23142;SDS011;11740;51.168;4.112;2023-09-19T08:52:43;12.55;;;2.58;;
23142;SDS011;11740;51.168;4.112;2023-09-19T08:55:15;13.27;;;2.45;;
23142;SDS011;11740;51.168;4.112;2023-09-19T08:57:49;12.52;;;2.50;;
23142;SDS011;11740;51.168;4.112;2023-09-19T09:00:18;17.73;;;2.75;;
23142;SDS011;11740;51.168;4.112;2023-09-19T09:02:47;12.63;;;2.53;;
23142;SDS011;11740;51.168;4.112;2023-09-19T09:05:15;10.30;;;2.38;;
23142;SDS011;11740;51.168;4.112;2023-09-19T09:07:52;18.20;;;2.63;;
23142;SDS011;11740;51.168;4.112;2023-09-19T09:10:23;12.33;;;2.57;;
23142;SDS011;11740;51.168;4.112;2023-09-19T09:12:53;15.82;;;2.80;;
23142;SDS011;11740;51.168;4.112;2023-09-19T09:15:24;14.32;;;2.90;;
23142;SDS011;11740;51.168;4.112;2023-09-19T09:17:51;10.82;;;2.45;;
23142;SDS011;11740;51.168;4.112;2023-09-19T09:20:22;11.10;;;2.70;;
23142;SDS011;11740;51.168;4.112;2023-09-19T09:22:52;14.63;;;2.20;;
23142;SDS011;11740;51.168;4.112;2023-09-19T09:25:21;12.00;;;2.22;;
23142;SDS011;11740;51.168;4.112;2023-09-19T09:28:01;10.48;;;2.28;;
23142;SDS011;11740;51.168;4.112;2023-09-19T09:30:32;8.32;;;1.88;;
23142;SDS011;11740;51.168;4.112;2023-09-19T09:33:07;10.27;;;2.25;;
23142;SDS011;11740;51.168;4.112;2023-09-19T09:35:52;10.35;;;2.13;;
23142;SDS011;11740;51.168;4.112;2023-09-19T09:38:27;8.25;;;1.70;;
23142;SDS011;11740;51.168;4.112;2023-09-19T09:41:00;10.43;;;2.13;;
23142;SDS011;11740;51.168;4.112;2023-09-19T09:43:34;9.80;;;2.30;;
23142;SDS011;11740;51.168;4.112;2023-09-19T09:46:12;10.07;;;2.15;;
23142;SDS011;11740;51.168;4.112;2023-09-19T09:49:01;9.73;;;2.25;;
23142;SDS011;11740;51.168;4.112;2023-09-19T09:54:59;8.68;;;2.00;;
23142;SDS011;11740;51.168;4.112;2023-09-19T09:57:28;10.27;;;2.08;;
23142;SDS011;11740;51.168;4.112;2023-09-19T09:59:57;8.60;;;1.80;;
23142;SDS011;11740;51.168;4.112;2023-09-19T10:02:42;9.82;;;1.60;;
23142;SDS011;11740;51.168;4.112;2023-09-19T10:08:11;10.53;;;1.97;;
23142;SDS011;11740;51.168;4.112;2023-09-19T10:10:39;10.95;;;2.28;;
23142;SDS011;11740;51.168;4.112;2023-09-19T10:13:11;6.25;;;1.50;;
23142;SDS011;11740;51.168;4.112;2023-09-19T10:15:42;12.35;;;1.67;;
23142;SDS011;11740;51.168;4.112;2023-09-19T10:18:21;9.27;;;1.65;;
23142;SDS011;11740;51.168;4.112;2023-09-19T10:20:54;7.45;;;1.85;;
23142;SDS011;11740;51.168;4.112;2023-09-19T10:23:23;8.43;;;1.55;;
23142;SDS011;11740;51.168;4.112;2023-09-19T10:25:57;9.55;;;1.52;;
23142;SDS011;11740;51.168;4.112;2023-09-19T10:28:28;11.32;;;1.73;;
23142;SDS011;11740;51.168;4.112;2023-09-19T10:30:58;14.40;;;2.25;;
23142;SDS011;11740;51.168;4.112;2023-09-19T10:33:26;6.65;;;1.80;;
23142;SDS011;11740;51.168;4.112;2023-09-19T10:36:04;11.52;;;1.70;;
23142;SDS011;11740;51.168;4.112;2023-09-19T10:38:31;5.80;;;1.60;;
23142;SDS011;11740;51.168;4.112;2023-09-19T10:41:02;9.30;;;1.90;;
23142;SDS011;11740;51.168;4.112;2023-09-19T10:43:30;13.40;;;2.00;;
23142;SDS011;11740;51.168;4.112;2023-09-19T10:46:02;4.95;;;1.50;;
23142;SDS011;11740;51.168;4.112;2023-09-19T10:48:37;7.50;;;1.83;;
23142;SDS011;11740;51.168;4.112;2023-09-19T10:51:11;7.72;;;1.90;;
23142;SDS011;11740;51.168;4.112;2023-09-19T10:56:24;8.27;;;1.58;;
23142;SDS011;11740;51.168;4.112;2023-09-19T10:59:10;7.25;;;1.75;;
23142;SDS011;11740;51.168;4.112;2023-09-19T11:04:29;6.78;;;1.23;;
23142;SDS011;11740;51.168;4.112;2023-09-19T11:07:05;5.57;;;1.25;;
23142;SDS011;11740;51.168;4.112;2023-09-19T11:09:58;7.38;;;1.65;;
23142;SDS011;11740;51.168;4.112;2023-09-19T11:15:02;6.05;;;1.35;;
23142;SDS011;11740;51.168;4.112;2023-09-19T11:17:34;5.85;;;1.15;;
23142;SDS011;11740;51.168;4.112;2023-09-19T11:30:44;8.43;;;1.50;;
23142;SDS011;11740;51.168;4.112;2023-09-19T11:36:08;4.15;;;1.10;;
23142;SDS011;11740;51.168;4.112;2023-09-19T11:43:52;7.80;;;1.00;;
23142;SDS011;11740;51.168;4.112;2023-09-19T11:46:27;5.13;;;1.27;;
23142;SDS011;11740;51.168;4.112;2023-09-19T11:48:55;3.55;;;0.90;;
23142;SDS011;11740;51.168;4.112;2023-09-19T11:51:42;6.25;;;1.10;;
23142;SDS011;11740;51.168;4.112;2023-09-19T11:54:14;9.88;;;1.10;;
23142;SDS011;11740;51.168;4.112;2023-09-19T11:57:07;5.43;;;1.45;;
23142;SDS011;11740;51.168;4.112;2023-09-19T11:59:38;2.92;;;1.00;;
23142;SDS011;11740;51.168;4.112;2023-09-19T12:02:06;16.23;;;1.75;;
23142;SDS011;11740;51.168;4.112;2023-09-19T12:04:38;6.75;;;1.25;;
23142;SDS011;11740;51.168;4.112;2023-09-19T12:07:09;7.10;;;1.20;;
23142;SDS011;11740;51.168;4.112;2023-09-19T12:09:46;9.75;;;1.45;;
23142;SDS011;11740;51.168;4.112;2023-09-19T12:12:23;4.25;;;0.90;;
23142;SDS011;11740;51.168;4.112;2023-09-19T12:14:54;5.22;;;1.00;;
23142;SDS011;11740;51.168;4.112;2023-09-19T12:17:39;9.85;;;1.55;;
23142;SDS011;11740;51.168;4.112;2023-09-19T12:20:09;5.72;;;1.38;;
23142;SDS011;11740;51.168;4.112;2023-09-19T12:22:43;7.15;;;1.20;;
23142;SDS011;11740;51.168;4.112;2023-09-19T12:25:13;3.95;;;1.10;;
23142;SDS011;11740;51.168;4.112;2023-09-19T12:27:48;4.95;;;1.15;;
23142;SDS011;11740;51.168;4.112;2023-09-19T12:30:19;6.70;;;1.42;;
23142;SDS011;11740;51.168;4.112;2023-09-19T12:32:57;7.20;;;1.20;;
23142;SDS011;11740;51.168;4.112;2023-09-19T12:35:28;3.17;;;1.35;;
23142;SDS011;11740;51.168;4.112;2023-09-19T12:38:02;4.63;;;1.30;;
23142;SDS011;11740;51.168;4.112;2023-09-19T12:40:30;11.13;;;1.40;;
23142;SDS011;11740;51.168;4.112;2023-09-19T12:43:00;8.25;;;2.03;;
23142;SDS011;11740;51.168;4.112;2023-09-19T12:45:31;7.85;;;1.65;;
23142;SDS011;11740;51.168;4.112;2023-09-19T12:53:43;4.75;;;1.38;;
23142;SDS011;11740;51.168;4.112;2023-09-19T12:56:15;4.82;;;1.42;;
23142;SDS011;11740;51.168;4.112;2023-09-19T13:01:25;4.72;;;1.58;;
23142;SDS011;11740;51.168;4.112;2023-09-19T13:06:54;8.38;;;1.92;;
23142;SDS011;11740;51.168;4.112;2023-09-19T13:09:27;11.70;;;1.95;;
23142;SDS011;11740;51.168;4.112;2023-09-19T13:12:01;5.22;;;1.52;;
23142;SDS011;11740;51.168;4.112;2023-09-19T13:14:33;4.90;;;1.40;;
23142;SDS011;11740;51.168;4.112;2023-09-19T13:17:10;6.47;;;1.73;;
23142;SDS011;11740;51.168;4.112;2023-09-19T13:19:46;3.78;;;1.13;;
23142;SDS011;11740;51.168;4.112;2023-09-19T13:25:12;5.18;;;1.65;;
23142;SDS011;11740;51.168;4.112;2023-09-19T13:30:24;6.10;;;1.30;;
23142;SDS011;11740;51.168;4.112;2023-09-19T13:33:08;5.20;;;1.30;;
23142;SDS011;11740;51.168;4.112;2023-09-19T13:35:38;5.32;;;1.38;;
23142;SDS011;11740;51.168;4.112;2023-09-19T13:38:07;6.10;;;1.40;;
23142;SDS011;11740;51.168;4.112;2023-09-19T13:40:38;5.80;;;1.58;;
23142;SDS011;11740;51.168;4.112;2023-09-19T13:43:06;6.15;;;1.40;;
23142;SDS011;11740;51.168;4.112;2023-09-19T13:45:33;9.05;;;1.70;;
23142;SDS011;11740;51.168;4.112;2023-09-19T13:48:00;6.55;;;1.70;;
23142;SDS011;11740;51.168;4.112;2023-09-19T13:50:27;2.83;;;1.30;;
23142;SDS011;11740;51.168;4.112;2023-09-19T13:52:56;3.92;;;1.08;;
23142;SDS011;11740;51.168;4.112;2023-09-19T13:55:24;8.20;;;1.42;;
23142;SDS011;11740;51.168;4.112;2023-09-19T13:57:51;6.45;;;1.65;;
23142;SDS011;11740;51.168;4.112;2023-09-19T14:00:22;9.60;;;1.80;;
23142;SDS011;11740;51.168;4.112;2023-09-19T14:02:50;3.92;;;1.48;;
23142;SDS011;11740;51.168;4.112;2023-09-19T14:05:18;5.10;;;1.25;;
23142;SDS011;11740;51.168;4.112;2023-09-19T14:07:47;6.25;;;1.63;;
23142;SDS011;11740;51.168;4.112;2023-09-19T14:10:14;4.65;;;1.60;;
23142;SDS011;11740;51.168;4.112;2023-09-19T14:12:44;5.40;;;1.73;;
23142;SDS011;11740;51.168;4.112;2023-09-19T14:15:11;4.75;;;1.42;;
23142;SDS011;11740;51.168;4.112;2023-09-19T14:17:39;10.60;;;1.90;;
23142;SDS011;11740;51.168;4.112;2023-09-19T14:20:12;4.65;;;1.42;;
23142;SDS011;11740;51.168;4.112;2023-09-19T14:22:40;4.28;;;1.50;;
23142;SDS011;11740;51.168;4.112;2023-09-19T14:25:07;6.07;;;1.50;;
23142;SDS011;11740;51.168;4.112;2023-09-19T14:27:35;7.13;;;1.98;;
23142;SDS011;11740;51.168;4.112;2023-09-19T14:30:02;8.77;;;1.70;;
23142;SDS011;11740;51.168;4.112;2023-09-19T14:32:30;5.25;;;1.92;;
23142;SDS011;11740;51.168;4.112;2023-09-19T14:34:57;4.78;;;1.60;;
23142;SDS011;11740;51.168;4.112;2023-09-19T14:37:24;3.53;;;1.48;;
23142;SDS011;11740;51.168;4.112;2023-09-19T14:39:54;7.22;;;2.08;;
23142;SDS011;11740;51.168;4.112;2023-09-19T14:42:21;4.97;;;1.58;;
23142;SDS011;11740;51.168;4.112;2023-09-19T14:44:48;7.88;;;2.20;;
23142;SDS011;11740;51.168;4.112;2023-09-19T14:47:16;4.88;;;1.40;;
23142;SDS011;11740;51.168;4.112;2023-09-19T14:49:43;6.05;;;1.50;;
23142;SDS011;11740;51.168;4.112;2023-09-19T14:52:11;4.68;;;1.40;;
23142;SDS011;11740;51.168;4.112;2023-09-19T14:54:42;7.05;;;2.03;;
23142;SDS011;11740;51.168;4.112;2023-09-19T14:57:09;6.22;;;1.70;;
23142;SDS011;11740;51.168;4.112;2023-09-19T14:59:36;7.75;;;1.88;;
23142;SDS011;11740;51.168;4.112;2023-09-19T15:02:05;8.38;;;1.88;;
23142;SDS011;11740;51.168;4.112;2023-09-19T15:04:33;8.18;;;2.05;;
23142;SDS011;11740;51.168;4.112;2023-09-19T15:07:00;6.55;;;1.88;;
23142;SDS011;11740;51.168;4.112;2023-09-19T15:09:29;7.35;;;1.55;;
23142;SDS011;11740;51.168;4.112;2023-09-19T15:11:58;6.70;;;1.95;;
23142;SDS011;11740;51.168;4.112;2023-09-19T15:14:25;5.22;;;1.33;;
23142;SDS011;11740;51.168;4.112;2023-09-19T15:16:52;6.28;;;1.90;;
23142;SDS011;11740;51.168;4.112;2023-09-19T15:19:19;8.52;;;1.92;;
23142;SDS011;11740;51.168;4.112;2023-09-19T15:21:46;7.97;;;1.70;;
23142;SDS011;11740;51.168;4.112;2023-09-19T15:24:13;9.77;;;2.13;;
23142;SDS011;11740;51.168;4.112;2023-09-19T15:26:41;6.13;;;1.92;;
23142;SDS011;11740;51.168;4.112;2023-09-19T15:29:10;5.78;;;1.98;;
23142;SDS011;11740;51.168;4.112;2023-09-19T15:31:37;8.35;;;1.85;;
23142;SDS011;11740;51.168;4.112;2023-09-19T15:34:04;7.28;;;1.65;;
23142;SDS011;11740;51.168;4.112;2023-09-19T15:36:35;8.30;;;1.92;;
23142;SDS011;11740;51.168;4.112;2023-09-19T15:39:05;7.30;;;2.10;;
23142;SDS011;11740;51.168;4.112;2023-09-19T15:41:44;7.93;;;2.00;;
23142;SDS011;11740;51.168;4.112;2023-09-19T15:44:15;6.70;;;1.70;;
23142;SDS011;11740;51.168;4.112;2023-09-19T15:46:45;7.88;;;2.28;;
23142;SDS011;11740;51.168;4.112;2023-09-19T15:49:13;8.15;;;2.03;;
23142;SDS011;11740;51.168;4.112;2023-09-19T15:51:40;9.43;;;2.05;;
23142;SDS011;11740;51.168;4.112;2023-09-19T15:54:10;7.00;;;1.88;;
23142;SDS011;11740;51.168;4.112;2023-09-19T15:56:43;6.50;;;1.92;;
23142;SDS011;11740;51.168;4.112;2023-09-19T15:59:11;6.53;;;2.00;;
23142;SDS011;11740;51.168;4.112;2023-09-19T16:01:39;8.38;;;2.10;;